Time;durP1;ratioP1;P1;durP2;ratioP2;P2;SDS_P1;SDS_P2;PMS_P1;PMS_P2;Temp;Humidity;BMP_temperature;BMP_pressure;BME280_temperature;BME280_humidity;BME280_pressure;Samples;Min_cycle;Max_cycle;Signal;HPM_P1;HPM_P2
2022/02/20 00:04:27;;;;;;;7.00;1.65;;;;;;;6.04;55.00;99324.72;10312774;28;20042;-68
2022/02/20 00:09:28;;;;;;;4.75;1.40;;;;;;;5.95;55.59;99330.38;10313188;28;20050;-68
2022/02/20 00:14:30;;;;;;;5.82;1.80;;;;;;;5.97;55.68;99331.13;10321572;28;20433;-68
2022/02/20 00:19:32;;;;;;;4.90;1.60;;;;;;;6.05;55.52;99348.00;10319175;28;20057;-68
2022/02/20 00:24:33;;;;;;;6.25;1.90;;;;;;;6.18;55.15;99354.28;10311575;28;20052;-68
2022/02/20 00:29:35;;;;;;;7.43;2.20;;;;;;;6.09;56.22;99370.28;10317533;28;20050;-68
2022/02/20 00:34:37;;;;;;;5.85;1.70;;;;;;;6.00;57.39;99356.94;10316030;28;20054;-67
2022/02/20 00:39:39;;;;;;;7.47;1.80;;;;;;;6.07;57.05;99361.75;10311409;28;20053;-68
2022/02/20 00:44:40;;;;;;;5.72;1.80;;;;;;;5.91;58.32;99380.75;10310601;28;20418;-68
2022/02/20 00:49:42;;;;;;;6.10;1.85;;;;;;;5.93;58.84;99384.97;10317631;28;20046;-68
2022/02/20 00:54:43;;;;;;;6.45;2.00;;;;;;;5.94;59.14;99381.44;10317238;28;20568;-68
2022/02/20 00:59:45;;;;;;;7.70;2.00;;;;;;;5.77;60.58;99409.97;10310643;28;20058;-68
2022/02/20 01:04:47;;;;;;;9.18;1.98;;;;;;;5.84;60.33;99408.75;10323544;28;20050;-68
2022/02/20 01:09:49;;;;;;;9.00;1.70;;;;;;;5.69;61.54;99412.09;10312169;28;20046;-68
2022/02/20 01:14:53;;;;;;;6.40;2.00;;;;;;;5.37;64.46;99412.81;10315699;28;20057;-67
2022/02/20 01:19:55;;;;;;;6.72;1.70;;;;;;;5.09;65.14;99410.63;10309365;28;20436;-68
2022/02/20 01:24:57;;;;;;;5.13;1.85;;;;;;;5.11;65.25;99389.81;10309552;28;20045;-68
2022/02/20 01:30:00;;;;;;;5.75;1.77;;;;;;;4.78;66.95;99399.94;10309328;28;20082;-68
2022/02/20 01:35:02;;;;;;;9.07;2.00;;;;;;;4.59;67.17;99422.41;10318563;28;20056;-67
2022/02/20 01:40:04;;;;;;;9.32;1.77;;;;;;;4.72;66.23;99417.53;10310575;28;20060;-67
2022/02/20 01:45:12;;;;;;;9.82;2.17;;;;;;;4.79;67.04;99421.53;10315472;28;20042;-68
2022/02/20 01:50:16;;;;;;;6.55;1.80;;;;;;;4.94;65.73;99426.88;10317041;28;20046;-68
2022/02/20 01:55:17;;;;;;;8.50;2.10;;;;;;;4.90;66.58;99429.69;10309419;28;20050;-68
2022/02/20 02:00:21;;;;;;;10.15;2.05;;;;;;;4.99;66.31;99430.09;10317807;28;20414;-67
2022/02/20 02:05:23;;;;;;;7.95;2.20;;;;;;;5.02;66.07;99439.50;10308740;28;20061;-68
2022/02/20 02:10:24;;;;;;;8.15;3.05;;;;;;;5.10;65.62;99433.06;10310578;28;20133;-68
2022/02/20 02:15:26;;;;;;;8.43;2.10;;;;;;;5.11;65.79;99433.88;10315480;28;20558;-67
2022/02/20 02:20:28;;;;;;;5.47;1.65;;;;;;;5.02;66.13;99442.06;10320204;28;20141;-68
2022/02/20 02:25:32;;;;;;;8.35;1.92;;;;;;;5.09;65.74;99435.69;10310980;28;20050;-67
2022/02/20 02:30:34;;;;;;;9.57;2.50;;;;;;;5.01;66.16;99446.41;10307818;28;20058;-67
2022/02/20 02:35:36;;;;;;;8.77;2.10;;;;;;;5.10;65.74;99447.75;10307167;28;20495;-68
2022/02/20 02:40:38;;;;;;;9.95;2.15;;;;;;;5.19;65.23;99455.09;10307181;28;20068;-68
2022/02/20 02:45:39;;;;;;;9.30;2.20;;;;;;;5.20;65.15;99459.38;10313223;28;20056;-67
2022/02/20 02:50:41;;;;;;;6.63;2.10;;;;;;;4.99;65.83;99460.34;10307737;28;20064;-68
2022/02/20 02:55:47;;;;;;;7.70;2.08;;;;;;;5.26;64.81;99466.88;10306105;28;20061;-67
2022/02/20 03:00:51;;;;;;;10.48;1.80;;;;;;;5.31;64.46;99472.72;10306973;28;20483;-67
2022/02/20 03:05:57;;;;;;;8.20;2.00;;;;;;;5.26;64.49;99491.06;10313574;28;20407;-68
2022/02/20 03:11:00;;;;;;;6.97;2.00;;;;;;;5.31;64.19;99503.84;10316089;28;20065;-68
2022/02/20 03:16:03;;;;;;;7.57;1.98;;;;;;;5.28;64.43;99516.91;10333832;28;20050;-68
2022/02/20 03:21:06;;;;;;;9.18;2.08;;;;;;;5.27;64.36;99536.81;10311669;28;20060;-67
2022/02/20 03:26:08;;;;;;;8.80;1.88;;;;;;;5.28;64.28;99542.84;10315498;28;20511;-68
2022/02/20 03:31:10;;;;;;;9.02;2.00;;;;;;;5.30;64.29;99546.22;10311937;28;20173;-67
2022/02/20 03:36:12;;;;;;;10.98;2.25;;;;;;;5.28;64.17;99555.81;10318000;28;20053;-67
2022/02/20 03:41:14;;;;;;;7.65;2.08;;;;;;;5.25;64.60;99556.78;10313097;28;20129;-68
2022/02/20 03:46:15;;;;;;;7.50;1.80;;;;;;;5.32;64.27;99565.97;10321987;28;20034;-67
2022/02/20 03:51:17;;;;;;;8.63;1.90;;;;;;;5.38;63.98;99573.50;10311416;28;20052;-67
2022/02/20 03:56:19;;;;;;;10.27;2.47;;;;;;;5.38;63.83;99573.50;10311745;28;20765;-67
2022/02/20 04:01:21;;;;;;;8.52;2.00;;;;;;;5.38;63.71;99593.38;10324525;28;20129;-67
2022/02/20 04:06:23;;;;;;;8.40;2.15;;;;;;;5.39;63.75;99600.28;10306832;28;20056;-67
2022/02/20 04:11:24;;;;;;;9.50;2.63;;;;;;;5.42;63.68;99590.59;10309718;28;20130;-67
2022/02/20 04:16:26;;;;;;;10.60;2.47;;;;;;;5.52;63.95;99598.81;10327027;28;20054;-67
2022/02/20 04:21:28;;;;;;;11.73;4.00;;;;;;;5.65;63.69;99609.47;10313625;28;20050;-67
2022/02/20 04:26:30;;;;;;;7.60;2.10;;;;;;;5.79;63.44;99622.66;10332532;28;20052;-68
2022/02/20 04:31:32;;;;;;;9.75;2.10;;;;;;;5.96;63.11;99618.38;10313394;28;20061;-67
2022/02/20 04:36:35;;;;;;;12.25;2.50;;;;;;;5.97;63.04;99624.44;10311708;28;20056;-68
2022/02/20 04:41:36;;;;;;;10.85;2.25;;;;;;;5.89;63.17;99623.94;10317553;28;20452;-67
2022/02/20 04:46:38;;;;;;;8.75;2.15;;;;;;;5.93;62.85;99620.28;10332299;28;20129;-67
2022/02/20 04:51:40;;;;;;;11.50;2.45;;;;;;;5.86;62.83;99621.50;10335597;28;20053;-67
2022/02/20 04:56:43;;;;;;;14.38;2.83;;;;;;;5.71;63.13;99622.19;10310330;28;20061;-68
2022/02/20 05:01:44;;;;;;;12.25;2.50;;;;;;;5.66;63.09;99622.38;10310864;28;20054;-68
2022/02/20 05:06:46;;;;;;;13.18;2.28;;;;;;;5.78;62.69;99611.44;10310065;28;20059;-68
2022/02/20 05:11:48;;;;;;;7.78;2.08;;;;;;;5.78;62.77;99623.59;10309888;28;20046;-68
2022/02/20 05:16:49;;;;;;;11.75;2.95;;;;;;;5.74;62.70;99620.28;10318642;28;20480;-67
2022/02/20 05:21:51;;;;;;;15.18;2.80;;;;;;;5.71;62.43;99617.84;10332639;28;20077;-67
2022/02/20 05:26:53;;;;;;;13.30;2.42;;;;;;;5.67;62.52;99621.47;10310182;28;20058;-68
2022/02/20 05:31:55;;;;;;;10.13;2.47;;;;;;;5.62;62.52;99622.56;10327887;28;20056;-68
2022/02/20 05:36:56;;;;;;;11.13;2.13;;;;;;;5.54;62.84;99612.53;10309113;28;20165;-67
2022/02/20 05:41:58;;;;;;;12.52;2.53;;;;;;;5.50;62.76;99600.63;10325429;28;20042;-67
2022/02/20 05:47:00;;;;;;;10.27;2.60;;;;;;;5.59;62.75;99604.56;10308580;28;20512;-67
2022/02/20 05:52:02;;;;;;;9.02;2.10;;;;;;;5.71;62.53;99612.66;10327265;28;20049;-67
2022/02/20 05:57:04;;;;;;;9.10;1.95;;;;;;;5.66;62.38;99608.56;10325606;28;20076;-68
2022/02/20 06:02:05;;;;;;;11.20;2.42;;;;;;;5.72;62.42;99601.34;10308185;28;20331;-68
2022/02/20 06:07:09;;;;;;;11.98;2.30;;;;;;;5.90;61.94;99604.88;10320536;28;20077;-68
2022/02/20 06:12:11;;;;;;;10.40;2.22;;;;;;;5.88;61.98;99609.28;10317908;28;20991;-68
2022/02/20 06:17:12;;;;;;;10.35;2.35;;;;;;;5.88;62.04;99619.69;10307756;28;20145;-68
2022/02/20 06:22:14;;;;;;;10.32;2.28;;;;;;;5.89;62.29;99622.19;10307686;28;20050;-68
2022/02/20 06:27:16;;;;;;;7.55;2.00;;;;;;;5.93;62.24;99618.53;10325740;28;20058;-68
2022/02/20 06:32:38;;;;;;;13.13;2.85;;;;;;;6.04;62.02;99626.66;10318016;28;20439;-68
2022/02/20 06:37:40;;;;;;;11.32;2.30;;;;;;;6.03;62.49;99618.94;10327063;28;20064;-68
2022/02/20 06:42:42;;;;;;;10.20;2.22;;;;;;;6.20;62.09;99619.88;10312428;28;20229;-69
2022/02/20 06:47:44;;;;;;;8.98;2.28;;;;;;;6.27;62.02;99612.66;10307169;28;20049;-69
2022/02/20 06:52:47;;;;;;;12.98;2.80;;;;;;;6.27;62.07;99608.31;10317320;28;20137;-68
2022/02/20 06:57:48;;;;;;;10.82;2.40;;;;;;;6.38;62.01;99609.53;10313087;28;20053;-67
2022/02/20 07:02:50;;;;;;;8.77;2.40;;;;;;;6.46;62.28;99600.47;10312278;28;20058;-68
2022/02/20 07:07:52;;;;;;;8.50;2.00;;;;;;;6.55;62.16;99604.41;10306977;28;20568;-69
2022/02/20 07:12:54;;;;;;;8.98;2.67;;;;;;;6.69;62.12;99604.56;10318151;28;20042;-68
2022/02/20 07:17:57;;;;;;;11.15;2.38;;;;;;;6.59;62.77;99604.19;10306084;28;20058;-68
2022/02/20 07:22:59;;;;;;;12.10;2.10;;;;;;;6.60;63.28;99592.00;10311177;28;20156;-68
2022/02/20 07:28:01;;;;;;;12.50;2.63;;;;;;;6.61;63.54;99589.34;10305903;28;20160;-68
2022/02/20 07:33:08;;;;;;;7.75;2.20;;;;;;;6.55;64.27;99592.22;10309484;28;20058;-68
2022/02/20 07:38:10;;;;;;;10.40;2.10;;;;;;;6.63;64.43;99597.06;10305080;28;20145;-68
2022/02/20 07:43:12;;;;;;;10.00;2.10;;;;;;;6.57;65.17;99595.59;10308895;28;20120;-68
2022/02/20 07:48:14;;;;;;;10.52;2.83;;;;;;;6.61;65.31;99591.94;10310635;28;20133;-68
2022/02/20 07:53:18;;;;;;;12.70;2.70;;;;;;;6.66;65.59;99591.69;10316388;28;20454;-68
2022/02/20 07:58:20;;;;;;;13.85;2.60;;;;;;;6.67;66.09;99575.22;10325678;28;20054;-68
2022/02/20 08:03:27;;;;;;;12.82;3.03;;;;;;;6.73;66.15;99562.75;10324272;28;20062;-69
2022/02/20 08:08:33;;;;;;;15.27;3.25;;;;;;;6.75;66.42;99563.53;10321139;28;20149;-69
2022/02/20 08:13:35;;;;;;;13.40;3.35;;;;;;;6.84;66.33;99554.41;10322064;28;20046;-67
2022/02/20 08:18:37;;;;;;;11.48;2.53;;;;;;;6.93;66.14;99547.00;10320242;28;20133;-69
2022/02/20 08:23:38;;;;;;;12.75;3.33;;;;;;;6.97;66.16;99550.28;10312481;28;20046;-67
2022/02/20 08:28:40;;;;;;;9.88;2.67;;;;;;;7.00;66.16;99542.31;10334909;28;20485;-68
2022/02/20 08:33:42;;;;;;;16.45;3.28;;;;;;;7.01;66.20;99528.41;10334972;28;20054;-67
2022/02/20 08:38:50;;;;;;;10.63;2.47;;;;;;;7.01;66.29;99537.03;10323548;28;20501;-68
2022/02/20 08:43:52;;;;;;;10.68;2.25;;;;;;;7.04;66.29;99523.06;10317547;28;20059;-67
2022/02/20 08:48:54;;;;;;;10.57;2.45;;;;;;;6.98;66.95;99525.94;10314535;28;20557;-68
2022/02/20 08:53:56;;;;;;;7.90;2.00;;;;;;;7.03;66.68;99523.97;10317108;28;20432;-69
2022/02/20 08:59:00;;;;;;;8.57;1.90;;;;;;;7.04;66.81;99523.88;10318671;28;20050;-69
2022/02/20 09:04:02;;;;;;;5.97;1.80;;;;;;;7.01;67.22;99524.03;10314244;28;20093;-69
2022/02/20 09:09:05;;;;;;;8.02;1.88;;;;;;;7.02;66.88;99509.28;10316489;28;20364;-68
2022/02/20 09:14:07;;;;;;;5.93;1.52;;;;;;;6.97;67.45;99509.53;10315155;28;20091;-68
2022/02/20 09:19:08;;;;;;;5.97;1.60;;;;;;;7.17;67.00;99517.13;10324492;28;20050;-69
2022/02/20 09:24:10;;;;;;;5.30;1.40;;;;;;;7.28;66.55;99526.97;10314779;28;20169;-69
2022/02/20 09:29:13;;;;;;;7.15;1.92;;;;;;;7.46;65.84;99523.38;10311448;28;20414;-69
2022/02/20 09:34:15;;;;;;;3.97;1.17;;;;;;;7.48;65.80;99523.31;10326837;28;20053;-69
2022/02/20 09:39:17;;;;;;;5.50;1.50;;;;;;;7.59;65.65;99506.19;10309081;28;21165;-68
2022/02/20 09:44:18;;;;;;;4.10;1.30;;;;;;;7.68;65.18;99505.69;10309536;28;20046;-68
2022/02/20 09:49:26;;;;;;;5.07;1.70;;;;;;;7.81;64.87;99485.03;10309559;28;20509;-68
2022/02/20 09:54:28;;;;;;;3.10;1.02;;;;;;;7.99;64.50;99473.59;10313478;28;20157;-68
2022/02/20 09:59:30;;;;;;;4.88;1.42;;;;;;;8.04;64.14;99458.53;10319341;28;20064;-68
2022/02/20 10:04:47;;;;;;;4.00;1.30;;;;;;;8.28;63.02;99456.34;10308107;28;20046;-68
2022/02/20 10:09:49;;;;;;;3.47;1.30;;;;;;;8.47;62.92;99459.53;10321675;28;20448;-69
2022/02/20 10:14:51;;;;;;;4.15;1.30;;;;;;;8.39;62.81;99470.41;10309530;28;20525;-69
2022/02/20 10:19:56;;;;;;;5.05;1.40;;;;;;;8.55;62.54;99447.72;10319611;28;20076;-68
2022/02/20 10:25:05;;;;;;;4.32;1.45;;;;;;;8.76;61.60;99456.91;10310551;28;20052;-69
2022/02/20 10:30:14;;;;;;;2.47;1.00;;;;;;;8.77;61.30;99463.78;10321536;28;20061;-69
2022/02/20 10:35:16;;;;;;;5.10;1.30;;;;;;;8.82;61.79;99455.69;10309029;28;20053;-69
2022/02/20 10:40:27;;;;;;;1.98;1.00;;;;;;;8.78;60.79;99454.19;10314219;28;20054;-67
2022/02/20 10:45:36;;;;;;;3.97;1.23;;;;;;;8.97;61.04;99438.28;10312459;28;20081;-67
2022/02/20 10:50:37;;;;;;;1.73;1.00;;;;;;;9.30;60.29;99410.13;10306791;28;20054;-67
2022/02/20 10:55:44;;;;;;;4.53;1.58;;;;;;;9.30;60.23;99416.16;10308638;28;20077;-63
2022/02/20 11:00:47;;;;;;;3.30;1.10;;;;;;;9.32;59.64;99423.91;10314648;28;20133;-63
2022/02/20 11:05:50;;;;;;;5.25;1.48;;;;;;;9.46;59.55;99406.41;10305378;28;20460;-64
2022/02/20 11:10:52;;;;;;;4.00;1.20;;;;;;;9.42;59.38;99415.38;10306122;28;20053;-63
2022/02/20 11:15:54;;;;;;;1.45;0.80;;;;;;;9.23;59.79;99393.16;10306522;28;20053;-63
2022/02/20 11:20:58;;;;;;;3.78;1.00;;;;;;;9.35;59.65;99393.22;10311471;28;20410;-64
2022/02/20 11:26:03;;;;;;;4.40;1.05;;;;;;;9.56;59.12;99381.41;10309581;28;20057;-63
2022/02/20 11:31:07;;;;;;;2.22;1.20;;;;;;;9.62;58.75;99388.03;10318607;28;20116;-63
2022/02/20 11:36:10;;;;;;;2.25;1.17;;;;;;;9.83;58.44;99368.38;10312668;28;20046;-64
2022/02/20 11:41:12;;;;;;;2.72;1.10;;;;;;;9.77;57.97;99347.88;10319638;28;20053;-63
2022/02/20 11:46:22;;;;;;;1.85;1.02;;;;;;;9.69;58.14;99372.84;10329709;28;20540;-63
2022/02/20 11:51:25;;;;;;;2.25;1.00;;;;;;;9.82;58.21;99350.19;10325877;28;20406;-63
2022/02/20 11:56:26;;;;;;;3.30;1.00;;;;;;;10.01;58.02;99335.81;10310956;28;20263;-63
2022/02/20 12:01:28;;;;;;;3.10;0.90;;;;;;;10.10;57.52;99334.34;10316893;28;20213;-63
2022/02/20 12:06:33;;;;;;;1.80;0.70;;;;;;;9.92;57.61;99340.81;10314804;28;20057;-64
2022/02/20 12:11:35;;;;;;;2.55;0.90;;;;;;;9.98;57.50;99328.19;10304124;28;20537;-64
2022/02/20 12:16:41;;;;;;;1.45;0.90;;;;;;;10.13;57.04;99323.72;10305268;28;20141;-63
2022/02/20 12:21:51;;;;;;;2.30;0.80;;;;;;;10.34;56.81;99327.47;10328986;28;20058;-64
2022/02/20 12:26:58;;;;;;;2.60;0.90;;;;;;;10.14;56.92;99328.81;10319255;28;20312;-63
2022/02/20 12:32:24;;;;;;;2.28;0.82;;;;;;;10.13;56.41;99319.34;10310159;28;20554;-63
2022/02/20 12:37:28;;;;;;;2.55;1.10;;;;;;;10.02;57.58;99323.59;10322469;28;20402;-64
2022/02/20 12:42:31;;;;;;;1.95;0.80;;;;;;;10.04;57.32;99312.09;10316511;28;20057;-62
2022/02/20 12:47:36;;;;;;;3.00;0.73;;;;;;;9.99;57.26;99306.34;10327606;28;20057;-62
2022/02/20 12:52:39;;;;;;;2.42;0.82;;;;;;;10.05;57.04;99313.78;10317584;28;20057;-63
2022/02/20 12:57:44;;;;;;;0.98;0.60;;;;;;;10.20;56.86;99319.72;10317241;28;20049;-63
2022/02/20 13:02:52;;;;;;;1.15;0.60;;;;;;;9.95;57.72;99330.19;10331622;28;20141;-63
2022/02/20 13:07:59;;;;;;;1.48;0.90;;;;;;;10.03;57.76;99307.00;10315743;28;20434;-62
2022/02/20 13:13:03;;;;;;;1.40;0.80;;;;;;;10.10;57.71;99287.31;10318325;28;20042;-63
2022/02/20 13:18:21;;;;;;;2.15;0.90;;;;;;;9.82;60.54;99295.34;10309476;28;20510;-63
2022/02/20 13:23:31;;;;;;;1.85;0.75;;;;;;;9.64;61.99;99284.34;10308343;28;20084;-62
2022/02/20 13:28:35;;;;;;;2.50;1.10;;;;;;;9.60;61.33;99280.25;10308091;28;20184;-63
2022/02/20 13:33:40;;;;;;;2.05;0.93;;;;;;;9.51;61.39;99278.22;10307475;28;20062;-62
2022/02/20 13:38:44;;;;;;;1.80;0.88;;;;;;;9.59;60.62;99263.75;10311188;28;20046;-63
2022/02/20 13:43:52;;;;;;;1.85;0.70;;;;;;;9.84;59.83;99249.06;10316165;28;20426;-63
2022/02/20 13:48:54;;;;;;;2.03;0.80;;;;;;;9.82;59.57;99238.75;10324550;28;20463;-63
2022/02/20 13:54:03;;;;;;;2.83;1.05;;;;;;;9.83;59.29;99232.56;10306586;28;20057;-63
2022/02/20 13:59:06;;;;;;;4.47;1.30;;;;;;;9.75;59.31;99215.75;10307495;28;20072;-63
2022/02/20 14:04:24;;;;;;;5.93;1.60;;;;;;;9.84;58.73;99207.28;10332011;28;20041;-63
2022/02/20 14:09:28;;;;;;;3.65;1.35;;;;;;;9.99;58.51;99183.56;10307570;28;20043;-62
2022/02/20 14:14:30;;;;;;;6.10;1.40;;;;;;;9.99;58.33;99177.53;10318981;28;20516;-62
2022/02/20 14:19:42;;;;;;;4.25;1.30;;;;;;;9.95;58.30;99163.00;10305989;28;20494;-62
2022/02/20 14:24:56;;;;;;;4.38;1.30;;;;;;;9.83;58.05;99153.41;10324933;28;20056;-63
2022/02/20 14:29:58;;;;;;;5.78;1.60;;;;;;;10.08;57.88;99141.13;10306044;28;20515;-63
2022/02/20 14:35:00;;;;;;;4.47;1.50;;;;;;;9.98;57.84;99152.34;10311614;28;20051;-63
2022/02/20 14:40:03;;;;;;;4.72;1.50;;;;;;;9.73;58.16;99139.31;10304990;28;20392;-63
2022/02/20 14:45:07;;;;;;;5.78;1.52;;;;;;;9.86;57.80;99142.72;10306321;28;20129;-63
2022/02/20 14:50:09;;;;;;;4.45;1.30;;;;;;;9.84;57.97;99118.50;10316411;28;20188;-64
2022/02/20 14:55:10;;;;;;;3.58;1.35;;;;;;;9.89;57.73;99105.97;10305562;28;20053;-64
2022/02/20 15:00:13;;;;;;;7.43;1.90;;;;;;;9.81;57.64;99101.25;10305794;28;20046;-64
2022/02/20 15:05:16;;;;;;;6.90;1.90;;;;;;;9.83;57.67;99085.50;10326098;28;20050;-64
2022/02/20 15:10:17;;;;;;;5.60;1.50;;;;;;;9.72;57.84;99077.56;10305381;28;20088;-63
2022/02/20 15:15:19;;;;;;;5.80;1.80;;;;;;;9.75;57.82;99066.94;10304778;28;20594;-64
2022/02/20 15:20:21;;;;;;;4.90;1.67;;;;;;;9.76;57.87;99058.16;10304698;28;20425;-63
2022/02/20 15:25:23;;;;;;;5.70;1.98;;;;;;;9.76;57.78;99059.00;10306411;28;20495;-64
2022/02/20 15:30:26;;;;;;;6.93;2.17;;;;;;;9.75;57.58;99051.28;10303524;28;20050;-64
2022/02/20 15:35:28;;;;;;;6.50;2.10;;;;;;;9.80;57.55;99036.09;10332676;28;20049;-64
2022/02/20 15:40:30;;;;;;;6.50;1.70;;;;;;;9.74;57.51;99024.31;10303705;28;20062;-63
2022/02/20 15:45:34;;;;;;;7.45;1.88;;;;;;;9.71;57.46;99024.50;10308883;28;20060;-63
2022/02/20 15:50:36;;;;;;;7.95;2.38;;;;;;;9.87;57.28;99014.66;10320271;28;20050;-64
2022/02/20 15:55:39;;;;;;;11.40;2.28;;;;;;;9.83;57.40;99001.94;10303099;28;20133;-64
2022/02/20 16:00:41;;;;;;;8.60;2.40;;;;;;;9.87;57.17;98998.16;10307865;28;20176;-64
2022/02/20 16:05:43;;;;;;;8.32;2.10;;;;;;;9.86;57.22;98994.72;10304439;28;20073;-63
2022/02/20 16:10:48;;;;;;;11.13;2.13;;;;;;;9.79;57.40;98985.63;10315107;28;20046;-64
2022/02/20 16:15:50;;;;;;;6.45;1.90;;;;;;;9.82;57.34;98977.59;10323599;28;20108;-63
2022/02/20 16:20:53;;;;;;;6.82;1.98;;;;;;;9.81;57.45;98954.22;10308745;28;20867;-63
2022/02/20 16:26:01;;;;;;;9.45;2.25;;;;;;;9.76;57.63;98938.88;10310326;28;20074;-63
2022/02/20 16:31:03;;;;;;;9.70;2.13;;;;;;;9.70;57.93;98933.25;10317148;28;20505;-63
2022/02/20 16:36:06;;;;;;;8.40;2.03;;;;;;;9.67;58.15;98941.31;10310909;28;20195;-63
2022/02/20 16:41:10;;;;;;;8.98;2.05;;;;;;;9.64;58.43;98940.56;10321146;28;20045;-63
2022/02/20 16:46:23;;;;;;;7.75;2.05;;;;;;;9.62;58.79;98932.00;10315483;28;20482;-63
2022/02/20 16:51:26;;;;;;;5.30;1.92;;;;;;;9.58;59.54;98914.06;10331489;28;20038;-63
2022/02/20 16:56:31;;;;;;;10.70;2.20;;;;;;;9.57;59.60;98915.81;10329983;28;20046;-63
2022/02/20 17:01:34;;;;;;;9.90;2.10;;;;;;;9.54;59.78;98907.41;10310698;28;20081;-64
2022/02/20 17:06:38;;;;;;;10.30;3.58;;;;;;;9.69;59.26;98902.88;10331598;28;20043;-64
2022/02/20 17:11:40;;;;;;;9.70;3.50;;;;;;;9.56;59.64;98885.44;10318156;28;20039;-63
2022/02/20 17:16:44;;;;;;;6.63;2.88;;;;;;;9.61;59.32;98893.78;10338375;28;20582;-62
2022/02/20 17:21:46;;;;;;;7.85;2.78;;;;;;;9.63;59.47;98897.13;10307476;28;20321;-67
2022/02/20 17:26:48;;;;;;;8.80;3.97;;;;;;;9.64;59.22;98885.75;10307639;28;20041;-68
2022/02/20 17:31:50;;;;;;;10.40;4.05;;;;;;;9.62;59.38;98879.81;10287790;28;20075;-68
2022/02/20 17:36:56;;;;;;;9.25;4.15;;;;;;;9.53;60.03;98877.00;10324649;28;20069;-68
2022/02/20 17:41:58;;;;;;;5.25;1.77;;;;;;;9.60;59.98;98871.25;10315978;28;20510;-68
2022/02/20 17:47:02;;;;;;;6.05;1.50;;;;;;;9.59;59.90;98858.28;10319435;28;20047;-68
2022/02/20 17:52:04;;;;;;;4.15;1.40;;;;;;;9.58;60.12;98857.44;10314157;28;20181;-68
2022/02/20 17:57:06;;;;;;;5.13;1.50;;;;;;;9.53;60.54;98843.91;10315624;28;20141;-68
2022/02/20 18:02:12;;;;;;;8.65;3.83;;;;;;;9.58;60.34;98839.16;10309138;28;20382;-68
2022/02/20 18:07:14;;;;;;;8.35;3.53;;;;;;;9.59;60.30;98840.00;10305460;28;20047;-68
2022/02/20 18:12:16;;;;;;;8.90;3.40;;;;;;;9.52;60.82;98828.38;10307057;28;20134;-68
2022/02/20 18:17:19;;;;;;;9.63;3.33;;;;;;;9.56;60.61;98822.78;10299860;28;20586;-68
2022/02/20 18:22:22;;;;;;;6.93;2.60;;;;;;;9.67;60.35;98805.56;10304760;28;20255;-69
2022/02/20 18:27:24;;;;;;;7.57;2.28;;;;;;;9.65;60.48;98796.03;10307575;28;20050;-68
2022/02/20 18:32:25;;;;;;;7.25;2.00;;;;;;;9.64;60.46;98793.53;10308370;28;20140;-68
2022/02/20 18:37:27;;;;;;;5.35;1.50;;;;;;;9.72;60.20;98793.00;10313452;28;20113;-68
2022/02/20 18:42:29;;;;;;;6.72;1.90;;;;;;;9.67;60.32;98776.84;10308133;28;20196;-68
2022/02/20 18:47:32;;;;;;;6.18;1.60;;;;;;;9.52;60.41;98739.63;10305977;28;20051;-68
2022/02/20 18:52:34;;;;;;;6.18;1.63;;;;;;;9.73;59.74;98745.06;10311215;28;20050;-68
2022/02/20 18:57:36;;;;;;;4.63;1.50;;;;;;;9.74;59.71;98739.72;10304500;28;20086;-68
2022/02/20 19:02:37;;;;;;;7.55;1.95;;;;;;;9.67;59.66;98753.34;10299424;28;20054;-68
2022/02/20 19:07:39;;;;;;;4.88;1.50;;;;;;;9.84;59.41;98727.63;10314789;28;20052;-68
2022/02/20 19:12:41;;;;;;;7.28;3.10;;;;;;;9.77;59.38;98705.53;10310791;28;20049;-68
2022/02/20 19:17:48;;;;;;;5.90;1.50;;;;;;;9.79;59.36;98708.88;10315279;28;20130;-67
2022/02/20 19:22:51;;;;;;;5.07;1.52;;;;;;;9.89;58.95;98701.19;10314579;28;20058;-67
2022/02/20 19:27:52;;;;;;;5.45;1.55;;;;;;;9.82;59.08;98692.13;10306234;28;20539;-67
2022/02/20 19:32:54;;;;;;;9.88;1.98;;;;;;;9.81;59.07;98685.28;10314742;28;20065;-68
2022/02/20 19:37:56;;;;;;;7.22;1.90;;;;;;;9.94;58.90;98676.38;10319000;28;20085;-67
2022/02/20 19:42:58;;;;;;;6.63;2.25;;;;;;;9.84;59.12;98669.34;10320720;28;20058;-68
2022/02/20 19:48:00;;;;;;;7.90;2.30;;;;;;;9.83;59.38;98684.19;10328200;28;20108;-67
2022/02/20 19:53:03;;;;;;;9.57;2.20;;;;;;;9.95;59.04;98664.16;10320934;28;20131;-67
2022/02/20 19:58:04;;;;;;;11.63;2.92;;;;;;;9.93;58.93;98642.53;10331085;28;20058;-68
2022/02/20 20:03:06;;;;;;;12.77;2.47;;;;;;;10.03;58.57;98602.53;10331250;28;20940;-68
2022/02/20 20:08:10;;;;;;;10.68;2.42;;;;;;;10.02;58.77;98631.38;10327156;28;20474;-68
2022/02/20 20:13:12;;;;;;;11.10;3.10;;;;;;;10.02;58.77;98608.69;10332106;28;20058;-67
2022/02/20 20:18:14;;;;;;;13.73;2.80;;;;;;;9.94;59.01;98591.97;10318304;28;20052;-68
2022/02/20 20:23:16;;;;;;;9.90;2.38;;;;;;;9.92;59.25;98567.75;10330540;28;20867;-68
2022/02/20 20:28:18;;;;;;;10.80;2.47;;;;;;;10.03;59.09;98550.31;10313003;28;20043;-67
2022/02/20 20:33:20;;;;;;;9.32;2.40;;;;;;;9.96;59.37;98511.72;10319766;28;20062;-69
2022/02/20 20:38:23;;;;;;;9.55;2.20;;;;;;;9.93;59.28;98511.97;10321443;28;20355;-68
2022/02/20 20:43:28;;;;;;;10.45;2.38;;;;;;;10.01;59.13;98509.56;10321531;28;20049;-67
2022/02/20 20:48:30;;;;;;;6.97;2.35;;;;;;;9.96;59.17;98488.22;10317796;28;20190;-67
2022/02/20 20:53:33;;;;;;;7.82;2.20;;;;;;;10.04;58.96;98488.41;10323873;28;20068;-68
2022/02/20 20:58:34;;;;;;;7.97;2.10;;;;;;;10.05;58.81;98464.81;10329714;28;20336;-67
2022/02/20 21:03:36;;;;;;;11.05;2.92;;;;;;;10.08;58.73;98443.66;10329843;28;20145;-68
2022/02/20 21:08:39;;;;;;;10.43;2.45;;;;;;;10.03;58.47;98409.25;10317076;28;20502;-68
2022/02/20 21:13:54;;;;;;;8.60;2.78;;;;;;;10.12;58.15;98407.66;10321655;28;20134;-67
2022/02/20 21:18:59;;;;;;;7.80;1.85;;;;;;;10.02;58.79;98394.53;10319818;28;20491;-67
2022/02/20 21:24:02;;;;;;;8.18;1.75;;;;;;;10.06;58.69;98385.47;10313094;28;20192;-67
2022/02/20 21:29:04;;;;;;;9.02;2.17;;;;;;;10.10;58.19;98401.72;10318041;28;20764;-67
2022/02/20 21:34:08;;;;;;;7.10;1.95;;;;;;;10.09;58.11;98398.31;10322875;28;20137;-66
2022/02/20 21:39:10;;;;;;;9.75;2.33;;;;;;;10.14;58.06;98358.72;10311930;28;20136;-68
2022/02/20 21:44:11;;;;;;;7.20;2.25;;;;;;;10.13;57.99;98323.13;10304742;28;20068;-67
2022/02/20 21:49:13;;;;;;;8.60;2.25;;;;;;;10.14;57.52;98330.81;10305643;28;20034;-67
2022/02/20 21:54:15;;;;;;;13.13;2.53;;;;;;;10.09;57.38;98293.81;10306934;28;20042;-67
2022/02/20 21:59:17;;;;;;;10.77;2.40;;;;;;;10.17;57.02;98311.47;10322959;28;20053;-67
2022/02/20 22:04:19;;;;;;;9.02;2.33;;;;;;;10.14;57.06;98290.81;10313092;28;20464;-67
2022/02/20 22:09:24;;;;;;;10.80;2.42;;;;;;;10.21;56.82;98271.06;10312373;28;20132;-67
2022/02/20 22:14:25;;;;;;;11.07;2.40;;;;;;;10.26;56.68;98250.59;10322825;28;20056;-67
2022/02/20 22:19:27;;;;;;;12.05;2.40;;;;;;;10.08;56.83;98242.53;10311965;28;20600;-67
2022/02/20 22:24:29;;;;;;;10.40;2.83;;;;;;;10.23;56.31;98225.56;10314148;28;20052;-67
2022/02/20 22:29:31;;;;;;;7.97;2.25;;;;;;;10.22;56.26;98221.28;10305121;28;20133;-67
2022/02/20 22:34:42;;;;;;;9.40;2.42;;;;;;;10.19;56.38;98195.44;10418674;28;20633;-66
2022/02/20 22:39:44;;;;;;;15.18;2.85;;;;;;;10.31;56.42;98217.06;10418701;28;20527;-66
2022/02/20 22:44:45;;;;;;;9.77;2.20;;;;;;;10.07;56.59;98212.16;10419269;28;20049;-68
2022/02/20 22:49:50;;;;;;;9.52;2.08;;;;;;;10.18;56.41;98195.53;10417997;28;20056;-67
2022/02/20 22:54:52;;;;;;;9.80;2.53;;;;;;;10.11;56.65;98168.31;10413659;28;20055;-66
2022/02/20 22:59:55;;;;;;;6.32;2.00;;;;;;;10.16;56.64;98179.19;10417883;28;20069;-68
2022/02/20 23:04:56;;;;;;;11.18;2.05;;;;;;;10.05;57.07;98154.00;10417821;28;20168;-67
2022/02/20 23:09:58;;;;;;;11.23;2.15;;;;;;;10.10;57.08;98117.84;10418416;28;20045;-67
2022/02/20 23:15:00;;;;;;;5.50;1.75;;;;;;;10.12;56.99;98112.47;10418230;28;20210;-66
2022/02/20 23:20:02;;;;;;;9.48;1.80;;;;;;;10.10;57.27;98123.06;10417101;28;20220;-66
2022/02/20 23:25:04;;;;;;;6.15;1.88;;;;;;;10.09;57.18;98108.38;10418136;28;20086;-66
2022/02/20 23:30:11;;;;;;;6.45;1.73;;;;;;;10.06;57.44;98079.91;10417967;28;20061;-66
2022/02/20 23:35:15;;;;;;;4.75;1.70;;;;;;;10.07;57.39;98073.72;10417095;28;20069;-66
2022/02/20 23:40:18;;;;;;;7.55;1.90;;;;;;;10.10;57.43;98059.56;10416921;28;20122;-66